Time;durP1;ratioP1;P1;durP2;ratioP2;P2;SDS_P1;SDS_P2;PMS_P1;PMS_P2;Temp;Humidity;BMP_temperature;BMP_pressure;BME280_temperature;BME280_humidity;BME280_pressure;Samples;Min_cycle;Max_cycle;Signal;HPM_P1;HPM_P2
2021/10/27 00:01:27;;;;;;;3.07;1.90;;;19.20;98.40;;;19.25;49.78;101924.16;4976122;28;108578;-42
2021/10/27 00:03:53;;;;;;;2.00;1.50;;;19.20;98.30;;;19.24;49.71;101922.44;4973968;27;98361;-43
2021/10/27 00:06:19;;;;;;;2.23;1.60;;;19.20;98.70;;;19.24;49.76;101922.44;4974154;27;112019;-44
2021/10/27 00:08:45;;;;;;;2.37;1.40;;;19.20;98.30;;;19.24;49.86;101922.44;4973460;27;99638;-46
2021/10/27 00:11:11;;;;;;;1.70;1.40;;;19.30;98.30;;;19.24;49.78;101925.09;4972855;28;100391;-43
2021/10/27 00:13:37;;;;;;;2.47;1.57;;;19.20;98.30;;;19.21;49.96;101922.56;4978298;27;98701;-44
2021/10/27 00:16:04;;;;;;;2.43;1.70;;;19.20;98.40;;;19.22;49.94;101924.28;4987888;27;99385;-45
2021/10/27 00:18:30;;;;;;;1.90;1.40;;;19.20;98.50;;;19.24;49.74;101921.53;4977777;27;98412;-46
2021/10/27 00:20:56;;;;;;;2.13;1.40;;;19.20;98.40;;;19.24;49.72;101917.06;4971312;27;100032;-44
2021/10/27 00:23:21;;;;;;;2.83;1.60;;;19.20;98.70;;;19.25;49.81;101918.81;4973477;28;99349;-44
2021/10/27 00:25:47;;;;;;;2.57;1.70;;;19.20;98.30;;;19.23;49.67;101920.66;4987932;27;97749;-44
2021/10/27 00:28:13;;;;;;;1.83;1.67;;;19.20;98.30;;;19.21;49.93;101922.56;4988436;27;97626;-42
2021/10/27 00:30:39;;;;;;;1.70;1.53;;;19.20;98.40;;;19.18;49.88;101914.69;4972214;28;101867;-43
2021/10/27 00:33:05;;;;;;;2.70;1.60;;;19.20;98.50;;;19.15;49.77;101925.56;4969733;27;100474;-43
2021/10/27 00:35:31;;;;;;;2.03;1.63;;;19.10;98.60;;;19.14;50.04;101923.84;4984877;28;99415;-48
2021/10/27 00:37:57;;;;;;;1.87;1.67;;;19.10;98.60;;;19.12;49.93;101917.72;4991027;27;97365;-42
2021/10/27 00:40:22;;;;;;;1.63;1.33;;;19.10;98.70;;;19.13;50.01;101927.47;4995981;28;100309;-45
2021/10/27 00:42:48;;;;;;;1.67;1.50;;;19.10;98.70;;;19.10;50.13;101924.09;4994900;27;97104;-47
2021/10/27 00:45:14;;;;;;;3.13;1.57;;;19.00;98.70;;;19.09;50.34;101917.84;4997823;28;96890;-43
2021/10/27 00:47:40;;;;;;;3.00;1.70;;;19.00;98.70;;;19.08;50.31;101926.81;5000040;28;97080;-45
2021/10/27 00:50:06;;;;;;;2.17;1.63;;;19.00;98.70;;;19.06;50.21;101923.34;4993509;27;100203;-45
2021/10/27 00:52:32;;;;;;;2.50;1.63;;;19.00;98.90;;;19.08;50.17;101921.47;4998579;28;100268;-43
2021/10/27 00:54:58;;;;;;;1.97;1.70;;;19.00;98.80;;;19.08;50.27;101920.59;4993632;27;97155;-49
2021/10/27 00:57:25;;;;;;;1.60;1.50;;;19.00;98.80;;;19.07;50.15;101925.06;4999789;28;99730;-43
2021/10/27 00:59:51;;;;;;;2.00;1.70;;;19.00;98.80;;;19.08;50.09;101921.47;4992359;27;98026;-44
2021/10/27 01:02:17;;;;;;;1.97;1.40;;;19.00;98.60;;;19.08;50.11;101926.81;4997802;27;97027;-43
2021/10/27 01:04:45;;;;;;;1.97;1.57;;;19.00;98.70;;;19.09;50.19;101917.84;4991063;28;96928;-46
2021/10/27 01:07:11;;;;;;;1.60;1.50;;;19.00;98.70;;;19.10;50.41;101914.25;4993868;27;97318;-47
2021/10/27 01:09:38;;;;;;;2.33;1.87;;;19.10;98.80;;;19.10;50.09;101916.94;4997335;28;100107;-43
2021/10/27 01:12:05;;;;;;;2.43;1.50;;;19.00;98.80;;;19.12;50.29;101916.84;4992555;27;97356;-46
2021/10/27 01:14:41;;;;;;;2.20;1.53;;;19.10;98.80;;;19.13;50.52;101924.78;5001033;27;97021;-43
2021/10/27 01:17:09;;;;;;;1.30;1.20;;;19.00;98.80;;;19.13;50.25;101919.44;4993619;27;98109;-43
2021/10/27 01:19:49;;;;;;;2.73;1.40;;;19.10;98.80;;;19.15;50.09;101912.19;4997035;27;98582;-43
2021/10/27 01:22:17;;;;;;;1.50;1.40;;;19.10;98.80;;;19.13;50.44;101914.09;4991407;28;102585;-46
2021/10/27 01:24:43;;;;;;;1.83;1.63;;;19.10;98.80;;;19.13;50.31;101908.75;5001296;27;97532;-43
2021/10/27 01:27:10;;;;;;;1.57;1.43;;;19.10;98.80;;;19.10;50.28;101903.56;4994456;27;97411;-43
2021/10/27 01:29:36;;;;;;;1.83;1.30;;;19.00;99.00;;;19.10;50.29;101903.56;4993416;27;97209;-43
2021/10/27 01:32:03;;;;;;;1.70;1.60;;;19.00;98.90;;;19.08;50.52;101913.44;4976089;27;98941;-46
2021/10/27 01:34:29;;;;;;;2.00;1.77;;;19.00;99.50;;;19.01;50.55;101907.56;4986226;28;96742;-43
2021/10/27 01:36:55;;;;;;;2.77;1.33;;;18.90;99.30;;;18.98;50.65;101906.84;4972629;28;97230;-43
2021/10/27 01:39:21;;;;;;;2.33;1.70;;;18.80;99.40;;;18.96;50.98;101901.59;4977020;27;111324;-45
2021/10/27 01:41:47;;;;;;;2.17;1.60;;;18.80;99.50;;;18.94;50.96;101902.59;4990587;27;98462;-44
2021/10/27 01:44:13;;;;;;;2.13;1.63;;;18.80;99.50;;;18.91;51.14;101903.59;4977552;27;96995;-44
2021/10/27 01:46:39;;;;;;;2.03;1.50;;;18.70;99.70;;;18.87;51.40;101907.38;4985227;27;96835;-45
2021/10/27 01:49:08;;;;;;;1.43;1.33;;;18.70;99.90;;;18.88;50.93;101908.25;4973413;27;97576;-44
2021/10/27 01:51:36;;;;;;;1.50;1.40;;;18.70;99.70;;;18.88;50.86;101909.13;4984642;28;98117;-43
2021/10/27 01:54:03;;;;;;;1.60;1.40;;;18.70;99.60;;;18.92;51.05;101904.47;4987304;28;97291;-43
2021/10/27 01:56:29;;;;;;;1.83;1.53;;;18.80;99.40;;;18.93;50.92;101912.41;5007795;27;97040;-43
2021/10/27 01:58:55;;;;;;;3.50;2.13;;;18.80;99.30;;;18.90;50.98;101906.38;4996052;27;97562;-42
2021/10/27 02:01:23;;;;;;;1.90;1.47;;;18.80;99.60;;;18.84;51.24;101906.69;4989592;28;98400;-43
2021/10/27 02:03:49;;;;;;;1.47;1.37;;;18.70;99.90;;;18.83;51.04;101904.97;4995666;27;97211;-43
2021/10/27 02:06:15;;;;;;;3.97;1.70;;;18.70;99.80;;;18.86;51.16;101900.31;4995058;28;97076;-42
2021/10/27 02:08:42;;;;;;;1.60;1.50;;;18.70;99.50;;;18.86;51.21;101896.78;4998751;27;97548;-43
2021/10/27 02:11:09;;;;;;;1.27;1.17;;;18.70;99.60;;;18.87;51.13;101890.50;4994189;27;97365;-42
2021/10/27 02:13:35;;;;;;;1.23;1.13;;;18.80;99.50;;;18.92;50.76;101891.09;5013436;27;97043;-45
2021/10/27 02:16:01;;;;;;;1.57;1.33;;;18.80;99.30;;;18.92;50.82;101893.78;4999392;27;97028;-42
2021/10/27 02:18:27;;;;;;;3.07;1.63;;;18.80;99.30;;;18.94;50.67;101891.88;5016519;27;100620;-43
2021/10/27 02:20:52;;;;;;;2.13;1.60;;;18.90;99.20;;;18.92;50.72;101893.78;4998018;27;98908;-44
2021/10/27 02:23:19;;;;;;;1.80;1.27;;;18.90;99.40;;;18.93;50.81;101890.16;4998719;28;96797;-47
2021/10/27 02:25:44;;;;;;;1.43;1.33;;;18.80;99.30;;;18.96;50.89;101890.03;5001612;27;98831;-49
2021/10/27 02:28:10;;;;;;;2.33;1.20;;;18.90;99.20;;;18.92;50.94;101889.28;4997935;27;103616;-43
2021/10/27 02:30:36;;;;;;;2.07;1.30;;;18.80;99.50;;;18.93;50.96;101895.50;5003309;27;100509;-43
2021/10/27 02:33:04;;;;;;;1.67;1.30;;;18.80;99.40;;;18.96;50.85;101890.03;5000158;27;98910;-42
2021/10/27 02:35:31;;;;;;;3.00;1.57;;;18.90;99.30;;;18.98;50.98;101888.13;4999154;28;96896;-43
2021/10/27 02:37:57;;;;;;;2.53;1.70;;;18.90;99.30;;;18.88;51.39;101893.06;5001336;27;97802;-43
2021/10/27 02:40:24;;;;;;;1.83;1.60;;;18.80;99.90;;;18.83;51.17;101899.63;4981615;28;97371;-42
2021/10/27 02:42:51;;;;;;;1.63;1.10;;;18.70;99.90;;;18.87;51.21;101895.84;5015244;27;98297;-44
2021/10/27 02:45:18;;;;;;;1.93;1.13;;;18.70;99.60;;;18.90;51.03;101903.69;4998377;28;97380;-47
2021/10/27 02:47:44;;;;;;;2.23;1.30;;;18.80;99.50;;;18.90;51.14;101891.19;5001768;28;99775;-45
2021/10/27 02:50:13;;;;;;;1.20;1.07;;;18.80;99.50;;;18.93;50.89;101890.16;5012111;27;102518;-43
2021/10/27 02:52:40;;;;;;;2.30;1.30;;;18.80;99.50;;;18.94;50.99;101894.56;5001304;28;96872;-42
2021/10/27 02:55:07;;;;;;;1.20;1.10;;;18.90;99.40;;;18.96;50.88;101895.38;4996970;27;96966;-43
2021/10/27 02:57:34;;;;;;;1.50;0.93;;;18.90;99.40;;;19.01;50.87;101894.19;4999852;27;101876;-45
2021/10/27 03:00:00;;;;;;;1.10;1.00;;;19.00;99.30;;;19.07;50.76;101898.34;4991740;27;97984;-44
2021/10/27 03:02:25;;;;;;;3.53;1.20;;;19.00;99.10;;;19.10;50.69;101892.00;5004087;27;97039;-44
2021/10/27 03:04:52;;;;;;;1.53;1.20;;;19.10;99.10;;;19.13;50.75;101883.81;5002989;27;97138;-45
2021/10/27 03:07:17;;;;;;;2.23;1.20;;;19.10;99.00;;;19.16;50.31;101889.00;4999121;27;97496;-46
2021/10/27 03:09:43;;;;;;;1.23;1.00;;;19.10;98.90;;;19.17;50.48;101888.91;5016868;27;98823;-44
2021/10/27 03:12:10;;;;;;;1.30;1.20;;;19.20;98.90;;;19.18;50.40;101885.28;4994564;28;97906;-46
2021/10/27 03:14:36;;;;;;;1.40;1.27;;;19.20;98.80;;;19.20;50.16;101883.38;5002090;27;97513;-43
2021/10/27 03:17:02;;;;;;;2.30;1.20;;;19.20;98.70;;;19.20;50.38;101886.06;4986611;27;99982;-45
2021/10/27 03:19:27;;;;;;;1.40;1.30;;;19.20;98.70;;;19.15;50.27;101885.44;5001336;28;100559;-42
2021/10/27 03:21:53;;;;;;;1.13;1.00;;;19.10;98.90;;;19.11;50.58;101883.88;5002714;27;101186;-43
2021/10/27 03:24:19;;;;;;;1.17;1.07;;;19.10;99.00;;;19.09;50.37;101877.72;4994875;28;98342;-45
2021/10/27 03:26:45;;;;;;;1.00;1.00;;;19.00;99.10;;;19.10;50.48;101874.13;4994580;28;99352;-46
2021/10/27 03:29:12;;;;;;;2.60;1.23;;;19.00;99.00;;;19.09;50.48;101891.09;4984848;28;102380;-45
2021/10/27 03:31:37;;;;;;;1.20;1.00;;;19.00;99.10;;;19.06;50.86;101896.59;4987826;28;97064;-46
2021/10/27 03:34:03;;;;;;;1.40;1.10;;;19.00;99.30;;;19.04;50.60;101893.16;4989966;28;99440;-43
2021/10/27 03:36:29;;;;;;;1.13;1.00;;;18.90;99.30;;;19.01;50.80;101894.19;4997043;27;99695;-43
2021/10/27 03:38:55;;;;;;;1.37;1.10;;;18.90;99.40;;;18.99;50.83;101896.06;5010153;27;102966;-43
2021/10/27 03:41:21;;;;;;;1.13;1.00;;;18.90;99.40;;;18.99;51.05;101896.06;4994070;28;102945;-45
2021/10/27 03:43:47;;;;;;;0.90;0.90;;;18.90;99.40;;;19.00;51.00;101904.97;4998929;27;96620;-43
2021/10/27 03:46:13;;;;;;;1.53;1.30;;;18.90;99.30;;;19.02;50.71;101903.94;4996712;28;99604;-45
2021/10/27 03:48:40;;;;;;;1.50;1.17;;;18.90;99.10;;;18.99;50.83;101905.91;5004082;28;100718;-43
2021/10/27 03:51:09;;;;;;;1.27;1.17;;;18.90;99.40;;;18.96;51.18;101911.41;4993935;27;97127;-43
2021/10/27 03:53:35;;;;;;;1.23;1.00;;;18.80;99.50;;;18.93;51.23;101901.72;4972497;28;97011;-43
2021/10/27 03:56:01;;;;;;;1.33;0.93;;;18.80;99.50;;;18.94;50.89;101910.59;4989729;27;97577;-44
2021/10/27 03:58:27;;;;;;;1.37;1.03;;;18.80;99.50;;;18.94;51.23;101907.94;4993793;28;99195;-43
2021/10/27 04:00:53;;;;;;;1.27;0.97;;;18.80;99.50;;;18.94;51.14;101905.25;4982568;28;96880;-43
2021/10/27 04:03:23;;;;;;;1.27;1.10;;;18.80;99.50;;;18.94;51.22;101907.94;5005934;27;100403;-42
2021/10/27 04:05:50;;;;;;;1.57;0.90;;;18.80;99.60;;;18.93;51.06;101911.53;4980659;27;98595;-43
2021/10/27 04:08:16;;;;;;;1.13;1.00;;;18.80;99.50;;;18.91;51.06;101906.28;5013127;27;99398;-43
2021/10/27 04:10:46;;;;;;;0.83;0.83;;;18.80;99.50;;;18.89;51.14;101904.63;4997630;28;97588;-43
2021/10/27 04:13:18;;;;;;;1.33;1.23;;;18.80;99.60;;;18.90;51.23;101906.38;4991765;27;97184;-44
2021/10/27 04:15:44;;;;;;;1.10;0.80;;;18.70;99.60;;;18.84;51.32;101912.03;5014304;27;98627;-44
2021/10/27 04:18:10;;;;;;;1.00;0.90;;;18.70;99.70;;;18.79;51.42;101908.69;4992427;27;101952;-43
2021/10/27 04:20:38;;;;;;;1.27;1.17;;;18.60;99.80;;;18.76;51.77;101915.06;5003267;27;97233;-42
2021/10/27 04:23:04;;;;;;;1.53;1.13;;;18.50;99.90;;;18.73;51.80;101909.88;4991622;27;97491;-43
2021/10/27 04:25:30;;;;;;;1.50;1.03;;;18.50;99.90;;;18.71;51.78;101909.09;4983338;27;97751;-43
2021/10/27 04:27:57;;;;;;;2.00;1.37;;;18.50;99.90;;;18.69;51.78;101908.31;4974494;28;97131;-47
2021/10/27 04:30:23;;;;;;;2.40;1.33;;;18.50;99.90;;;18.68;51.84;101912.81;4975037;28;98061;-47
2021/10/27 04:32:49;;;;;;;1.90;1.00;;;18.50;99.90;;;18.67;51.78;101916.41;4975692;28;97421;-46
2021/10/27 04:35:15;;;;;;;1.60;1.00;;;18.40;99.90;;;18.63;52.01;101914.81;4983186;28;100406;-44
2021/10/27 04:37:44;;;;;;;0.90;0.90;;;18.40;99.90;;;18.65;52.17;101918.28;4975778;27;97215;-44
2021/10/27 04:40:16;;;;;;;1.20;1.00;;;18.40;99.90;;;18.69;52.03;101919.00;4971135;27;96853;-43
2021/10/27 04:42:43;;;;;;;1.20;1.10;;;18.50;99.90;;;18.71;51.91;101912.66;4993427;28;96735;-43
2021/10/27 04:45:10;;;;;;;0.60;0.60;;;18.50;99.90;;;18.73;51.78;101916.09;4983399;27;97611;-43
2021/10/27 04:47:37;;;;;;;1.17;0.80;;;18.60;99.90;;;18.74;51.83;101927.66;4991112;27;97181;-47
2021/10/27 04:50:06;;;;;;;0.97;0.80;;;18.60;99.90;;;18.75;51.63;101928.53;4977248;28;97442;-44
2021/10/27 04:52:31;;;;;;;1.23;0.90;;;18.60;99.90;;;18.77;51.67;101931.97;4983661;28;97093;-43
2021/10/27 04:54:57;;;;;;;1.33;1.10;;;18.60;99.90;;;18.78;51.64;101923.88;4984915;27;98085;-44
2021/10/27 04:57:23;;;;;;;1.63;0.90;;;18.70;99.90;;;18.79;51.63;101924.75;4975357;28;98223;-43
2021/10/27 04:59:49;;;;;;;0.70;0.70;;;18.70;99.90;;;18.81;51.40;101921.06;4973618;28;97606;-43
2021/10/27 05:02:17;;;;;;;1.37;1.23;;;18.70;99.90;;;18.83;51.64;101921.88;4977343;28;98019;-43
2021/10/27 05:04:44;;;;;;;1.27;1.00;;;18.70;99.80;;;18.86;51.41;101928.84;4984346;28;97789;-47
2021/10/27 05:07:13;;;;;;;1.80;1.00;;;18.70;99.70;;;18.84;51.22;101926.25;4975501;28;103463;-45
2021/10/27 05:09:40;;;;;;;1.20;1.03;;;18.70;99.80;;;18.77;51.70;101922.16;4990668;27;97370;-44
2021/10/27 05:12:07;;;;;;;1.30;1.03;;;18.60;99.90;;;18.73;51.92;101921.44;4975083;28;97348;-44
2021/10/27 05:14:41;;;;;;;1.20;0.90;;;18.60;99.90;;;18.75;51.78;101923.16;4987254;27;100020;-43
2021/10/27 05:17:10;;;;;;;1.90;1.30;;;18.60;99.90;;;18.75;51.35;101923.16;4972157;28;98248;-43
2021/10/27 05:19:42;;;;;;;1.03;0.90;;;18.60;99.90;;;18.73;51.59;101926.78;4979374;28;97233;-48
2021/10/27 05:22:09;;;;;;;1.70;1.10;;;18.60;99.90;;;18.71;51.94;101928.69;4971327;28;97489;-47
2021/10/27 05:24:36;;;;;;;1.30;1.20;;;18.50;99.90;;;18.70;51.66;101921.59;4972169;28;99873;-46
2021/10/27 05:27:02;;;;;;;0.80;0.80;;;18.50;99.90;;;18.76;51.46;101917.75;4977938;27;98353;-44
2021/10/27 05:29:28;;;;;;;1.37;0.90;;;18.60;99.90;;;18.79;51.51;101922.06;4982316;28;97132;-44
2021/10/27 05:31:55;;;;;;;2.97;2.00;;;18.70;99.90;;;18.78;51.64;101918.53;4971386;28;97300;-46
2021/10/27 05:34:20;;;;;;;1.50;0.83;;;18.70;99.90;;;18.80;51.51;101921.13;4976643;28;98951;-44
2021/10/27 05:36:47;;;;;;;1.57;1.17;;;18.70;99.90;;;18.79;51.45;101922.06;4970281;27;98377;-46
2021/10/27 05:39:13;;;;;;;2.57;1.33;;;18.70;99.90;;;18.81;51.37;101917.53;5003390;27;96834;-45
2021/10/27 05:41:44;;;;;;;1.00;0.97;;;18.70;99.80;;;18.83;51.25;101921.00;4998882;28;97500;-46
2021/10/27 05:44:11;;;;;;;1.90;1.00;;;18.70;99.70;;;18.86;51.57;101921.69;4967155;27;102655;-45
2021/10/27 05:46:39;;;;;;;1.07;0.97;;;18.80;99.70;;;18.88;51.49;101921.63;4997695;27;97377;-43
2021/10/27 05:51:54;;;;;;;1.13;1.03;;;18.80;99.60;;;18.89;51.59;101934.03;4994196;27;96684;-45
2021/10/27 05:57:05;;;;;;;1.17;1.07;;;18.80;99.70;;;18.90;51.03;101939.31;4994222;27;97034;-43
2021/10/27 05:59:32;;;;;;;1.10;1.00;;;18.80;99.40;;;18.87;51.58;101930.59;4995812;28;96888;-42
2021/10/27 06:01:58;;;;;;;1.20;0.93;;;18.80;99.80;;;18.89;51.22;101939.38;4993339;27;101899;-43
2021/10/27 06:04:25;;;;;;;1.37;1.27;;;18.80;99.80;;;18.90;51.32;101933.09;4991659;28;97660;-42
2021/10/27 06:06:51;;;;;;;0.83;0.80;;;18.80;99.70;;;18.95;51.11;101936.38;4991373;27;98525;-45
2021/10/27 06:09:17;;;;;;;0.90;0.80;;;18.90;99.60;;;18.99;51.37;101946.00;5000703;27;99054;-43
2021/10/27 06:11:44;;;;;;;1.13;0.90;;;18.90;99.50;;;19.02;51.16;101941.38;4987508;27;97064;-43
2021/10/27 06:14:11;;;;;;;1.10;1.00;;;19.00;99.40;;;19.07;51.00;101946.47;4991587;27;100279;-44
2021/10/27 06:16:38;;;;;;;2.10;1.40;;;19.10;99.30;;;19.11;50.82;101955.22;4995241;28;99616;-42
2021/10/27 06:19:05;;;;;;;1.30;0.87;;;19.10;99.00;;;19.16;50.84;101947.81;4982886;27;99327;-44
2021/10/27 06:21:33;;;;;;;1.43;0.80;;;19.20;99.10;;;19.19;50.91;101950.34;4983377;28;97122;-45
2021/10/27 06:24:00;;;;;;;1.60;0.93;;;19.20;99.00;;;19.18;50.84;101944.13;4998687;27;97729;-43
2021/10/27 06:26:26;;;;;;;1.17;0.80;;;19.20;99.10;;;19.20;50.83;101952.06;4993449;28;97432;-43
2021/10/27 06:29:07;;;;;;;0.80;0.80;;;19.20;99.00;;;19.20;50.66;101950.25;4986926;27;97417;-42
2021/10/27 06:31:50;;;;;;;1.20;1.10;;;19.20;99.10;;;19.22;50.77;101956.38;4991826;27;97384;-42
2021/10/27 06:47:26;;;;;;;4.60;3.67;;;18.90;99.70;;;18.87;52.01;101965.34;4988950;27;100876;-44
2021/10/27 06:49:52;;;;;;;4.07;2.07;;;18.70;99.90;;;18.79;51.68;101967.50;4993120;27;97393;-42
2021/10/27 06:52:18;;;;;;;2.00;1.30;;;18.50;99.90;;;18.71;51.86;101976.78;4990284;28;97071;-43
2021/10/27 06:54:51;;;;;;;3.53;2.70;;;18.50;99.90;;;18.67;52.09;101977.88;4991961;27;97528;-44
2021/10/27 06:57:19;;;;;;;2.93;2.60;;;18.40;99.90;;;18.62;52.33;101981.66;4991809;28;103125;-42
2021/10/27 06:59:46;;;;;;;4.90;3.27;;;18.40;99.90;;;18.52;52.43;101986.63;4985464;28;97038;-45
2021/10/27 07:15:34;;;;;;;6.27;3.27;;;18.20;99.90;;;18.44;52.68;102002.13;4997282;27;97123;-44
2021/10/27 07:18:00;;;;;;;4.80;3.17;;;18.30;99.90;;;18.39;53.07;101990.81;4991775;27;97014;-42
2021/10/27 07:20:28;;;;;;;3.33;2.67;;;18.20;99.90;;;18.37;53.01;101998.91;4996992;27;97408;-44
2021/10/27 07:22:58;;;;;;;4.90;3.30;;;18.10;99.90;;;18.34;53.23;101999.00;5000259;27;98411;-42
2021/10/27 07:25:24;;;;;;;1.40;1.10;;;18.10;99.90;;;18.37;53.01;102000.66;4997420;27;97035;-45
2021/10/27 07:27:51;;;;;;;4.03;3.20;;;18.10;99.90;;;18.37;52.81;102003.34;4994066;27;97456;-48
2021/10/27 07:30:18;;;;;;;3.87;3.47;;;18.10;99.90;;;18.32;53.33;102005.38;4992216;28;97197;-43
2021/10/27 07:32:44;;;;;;;5.10;3.20;;;18.00;99.90;;;18.26;53.46;102011.00;4996746;27;97511;-44
2021/10/27 07:40:34;;;;;;;2.20;1.97;;;18.00;99.90;;;18.28;53.24;102009.13;4970304;28;96873;-44
2021/10/27 07:43:09;;;;;;;1.33;1.17;;;18.00;99.90;;;18.29;53.20;102005.53;4986700;28;97479;-46
2021/10/27 07:45:37;;;;;;;3.70;2.17;;;18.00;99.90;;;18.25;53.57;102002.13;4979707;28;97103;-44
2021/10/27 07:48:04;;;;;;;5.50;4.20;;;17.90;99.90;;;18.22;54.00;102009.41;4979853;28;97566;-44
2021/10/27 07:50:33;;;;;;;5.63;3.67;;;17.90;99.90;;;18.19;53.54;102014.88;4977658;28;96918;-42
2021/10/27 07:53:01;;;;;;;4.30;3.30;;;17.80;99.90;;;18.17;53.88;102006.09;4972285;27;97894;-46
2021/10/27 07:55:28;;;;;;;5.23;4.30;;;17.80;99.90;;;18.14;53.67;102012.44;4984028;28;97993;-43
2021/10/27 07:57:55;;;;;;;6.40;4.23;;;17.80;99.90;;;18.14;53.91;102017.78;4972220;28;97258;-44
2021/10/27 08:00:22;;;;;;;7.23;4.63;;;17.80;99.90;;;17.92;55.67;102012.53;4978054;28;97354;-43
2021/10/27 08:02:49;;;;;;;7.43;5.53;;;17.60;99.90;;;17.81;56.36;102018.38;4976225;28;96897;-43
2021/10/27 08:05:16;;;;;;;12.47;5.73;;;17.40;99.90;;;17.68;56.34;102018.94;4976271;28;97458;-43
2021/10/27 08:07:45;;;;;;;8.17;5.53;;;17.30;99.90;;;17.57;56.95;102015.88;4978412;28;97185;-42
2021/10/27 08:10:13;;;;;;;1.93;1.47;;;17.20;99.90;;;17.69;55.54;102018.03;4968562;28;96768;-42
2021/10/27 08:12:41;;;;;;;2.13;1.53;;;17.30;99.90;;;17.82;54.72;102012.09;4981988;28;97227;-45
2021/10/27 08:15:07;;;;;;;3.07;2.40;;;17.50;99.90;;;17.96;54.18;102016.81;4969985;28;97310;-44
2021/10/27 08:17:34;;;;;;;1.83;1.37;;;17.80;99.90;;;18.07;54.30;102014.50;4977473;28;99620;-42
2021/10/27 08:20:00;;;;;;;2.17;1.40;;;17.90;99.90;;;18.20;53.97;102019.28;4974018;27;99884;-44
2021/10/27 08:22:26;;;;;;;2.43;1.63;;;18.10;99.90;;;18.30;53.41;102017.94;4982567;28;99256;-43
2021/10/27 08:24:53;;;;;;;1.90;1.40;;;18.20;99.90;;;18.38;53.15;102021.13;4977455;27;97606;-44
2021/10/27 08:27:20;;;;;;;1.47;1.30;;;18.30;99.90;;;18.52;52.80;102023.16;4983494;27;98202;-42
2021/10/27 08:29:46;;;;;;;5.10;3.40;;;18.40;99.90;;;18.57;52.71;102015.78;4980906;27;96991;-48
2021/10/27 08:34:47;;;;;;;2.00;1.63;;;18.60;99.90;;;18.71;52.16;102029.38;4981400;28;97362;-44
2021/10/27 08:37:18;;;;;;;4.73;2.07;;;18.70;99.90;;;18.77;52.23;102028.22;4974867;27;102830;-44
2021/10/27 08:39:45;;;;;;;2.10;1.47;;;18.70;99.90;;;18.84;51.79;102029.66;4977018;28;97180;-42
2021/10/27 08:42:14;;;;;;;2.13;1.70;;;18.80;99.90;;;18.89;51.83;102027.63;4977169;27;97468;-45
2021/10/27 08:44:45;;;;;;;2.07;1.87;;;18.90;99.90;;;18.90;51.62;102018.66;5002704;27;97847;-46
2021/10/27 08:47:11;;;;;;;2.50;1.73;;;18.90;99.90;;;18.91;51.52;102020.38;4980905;28;102318;-42
2021/10/27 08:49:38;;;;;;;5.13;3.13;;;18.80;99.90;;;18.95;51.40;102027.31;4974772;28;97430;-45
2021/10/27 08:52:08;;;;;;;4.90;3.80;;;18.90;99.90;;;18.98;51.71;102016.47;4972853;28;97016;-42
2021/10/27 08:54:34;;;;;;;5.70;3.47;;;19.00;99.90;;;19.04;51.29;102024.19;4981757;28;99012;-43
2021/10/27 08:57:07;;;;;;;2.27;1.83;;;19.00;99.80;;;19.06;51.27;102019.63;4977059;28;96970;-44
2021/10/27 09:07:47;;;;;;;2.70;1.60;;;19.00;99.80;;;19.04;51.23;102016.16;4972758;28;100249;-44
2021/10/27 10:05:23;;;;;;;2.97;1.70;;;18.40;99.90;;;18.39;53.27;102022.84;4973306;27;99693;-43
2021/10/27 10:07:52;;;;;;;3.23;2.17;;;18.20;99.90;;;18.40;53.21;102024.59;4974250;28;96870;-44
2021/10/27 10:10:18;;;;;;;5.13;2.63;;;18.20;99.90;;;18.41;53.13;102020.97;4983086;28;97126;-47
2021/10/27 10:12:49;;;;;;;4.40;2.50;;;18.20;99.90;;;18.35;53.32;102018.56;4993889;28;97879;-42
2021/10/27 10:15:38;;;;;;;3.70;1.90;;;18.20;99.90;;;18.34;53.97;102016.84;4990234;28;100079;-47
2021/10/27 10:18:05;;;;;;;5.50;2.03;;;18.20;99.90;;;18.34;53.58;102009.69;4995243;27;97250;-45
2021/10/27 10:20:32;;;;;;;2.27;1.70;;;18.20;99.90;;;18.26;53.50;102011.00;4999283;27;96871;-46
2021/10/27 10:23:20;;;;;;;3.10;1.67;;;18.10;99.90;;;18.35;53.26;102021.25;4973438;27;104191;-43
2021/10/27 10:25:55;;;;;;;3.23;2.10;;;18.20;99.90;;;18.26;53.49;102017.22;4993076;27;97218;-48
2021/10/27 10:28:28;;;;;;;1.90;1.60;;;18.10;99.90;;;18.33;53.29;102012.44;5007062;27;101173;-43
2021/10/27 10:31:03;;;;;;;3.93;2.00;;;18.20;99.90;;;18.22;53.58;101999.56;4993922;27;97264;-45
2021/10/27 10:33:45;;;;;;;5.70;2.03;;;18.10;99.90;;;18.21;53.82;102007.66;4992105;27;96782;-45
2021/10/27 10:36:31;;;;;;;2.23;1.67;;;18.10;99.90;;;18.25;53.70;102009.28;4994482;27;98546;-43
2021/10/27 11:25:02;;;;;;;4.40;1.83;;;18.40;99.90;;;18.47;52.86;101988.63;4982945;28;96769;-43
2021/10/27 11:42:04;;;;;;;8.00;3.57;;;18.40;99.90;;;18.50;53.07;101977.78;4976494;27;97816;-49
2021/10/27 11:45:04;;;;;;;6.27;3.50;;;18.40;99.90;;;18.58;52.94;101970.28;4988963;27;101128;-44
2021/10/27 11:47:46;;;;;;;6.20;2.60;;;18.50;99.90;;;18.54;52.75;101963.34;4978153;27;96737;-43
2021/10/27 11:50:16;;;;;;;5.87;3.00;;;18.50;99.90;;;18.49;52.58;101960.00;4976614;27;97026;-46
2021/10/27 11:52:48;;;;;;;7.63;3.37;;;18.50;99.90;;;18.53;52.82;101950.94;4981891;28;96951;-42
2021/10/27 11:55:16;;;;;;;2.03;1.53;;;18.50;99.90;;;18.67;52.62;101951.16;4979155;28;103164;-44
2021/10/27 11:57:44;;;;;;;5.07;1.93;;;18.60;99.90;;;18.76;52.52;101951.63;4991519;28;97104;-43
2021/10/27 12:00:41;;;;;;;4.23;2.30;;;18.80;99.90;;;18.75;52.08;101944.56;4974382;27;96949;-43
2021/10/27 12:03:17;;;;;;;5.63;2.37;;;18.80;99.90;;;18.75;52.25;101944.56;4958542;28;98895;-44
2021/10/27 12:06:03;;;;;;;5.07;2.23;;;18.70;99.90;;;18.79;53.10;101944.31;4976479;28;98387;-43
2021/10/27 12:14:11;;;;;;;3.70;1.90;;;18.90;99.90;;;18.97;51.58;101924.69;4976347;28;96924;-42
2021/10/27 12:19:18;;;;;;;5.43;2.43;;;19.10;99.90;;;19.01;51.21;101930.75;4974568;28;96926;-43
2021/10/27 12:21:54;;;;;;;4.37;1.80;;;19.00;99.70;;;19.10;51.74;101924.94;4969415;28;97301;-44
2021/10/27 12:24:36;;;;;;;2.03;1.50;;;19.10;99.90;;;19.16;51.43;101929.09;4967694;28;104658;-44
2021/10/27 12:27:31;;;;;;;6.00;2.20;;;19.20;99.80;;;19.16;51.02;101924.63;4973875;28;98939;-43
2021/10/27 12:30:10;;;;;;;3.57;1.83;;;19.20;99.50;;;19.15;50.78;101922.03;4983667;27;97294;-44
2021/10/27 12:32:54;;;;;;;4.10;1.83;;;19.20;99.30;;;19.13;50.93;101914.09;4982477;28;98720;-46
2021/10/27 12:35:27;;;;;;;4.23;2.40;;;19.10;99.40;;;19.12;50.94;101912.34;4972486;28;103279;-45
2021/10/27 12:38:12;;;;;;;2.33;1.73;;;19.10;99.40;;;19.09;51.02;101909.81;4987992;27;97202;-48
2021/10/27 12:40:42;;;;;;;3.47;2.00;;;19.10;99.60;;;19.12;51.43;101907.00;4995894;28;97247;-45
2021/10/27 12:43:23;;;;;;;2.47;1.60;;;19.10;99.70;;;19.20;51.05;101902.09;4988710;27;98091;-45
2021/10/27 12:45:54;;;;;;;2.27;1.63;;;19.20;99.50;;;19.27;50.83;101902.66;4988594;28;97635;-43
2021/10/27 12:48:47;;;;;;;5.70;2.67;;;19.30;99.60;;;19.36;50.64;101898.63;5009474;27;98746;-44
2021/10/27 12:51:13;;;;;;;4.70;2.10;;;19.40;99.40;;;19.38;50.69;101891.38;4966991;28;97293;-44
2021/10/27 12:53:47;;;;;;;4.17;2.30;;;19.40;99.20;;;19.46;51.13;101894.53;4970164;28;96854;-46
2021/10/27 12:56:21;;;;;;;2.93;2.10;;;19.50;99.40;;;19.48;50.37;101888.16;4991089;27;102786;-45
2021/10/27 12:59:01;;;;;;;2.63;1.50;;;19.50;99.10;;;19.53;50.21;101890.59;4993750;27;97162;-46
2021/10/27 13:01:38;;;;;;;2.20;1.60;;;19.60;98.80;;;19.56;50.20;101888.66;4993180;27;97095;-45
2021/10/27 13:09:39;;;;;;;5.77;2.00;;;19.60;98.80;;;19.55;50.53;101888.72;4992842;27;99795;-43
2021/10/27 13:33:11;;;;;;;4.20;2.33;;;19.70;98.70;;;19.61;50.18;101873.19;4994678;27;96901;-47
2021/10/27 13:35:37;;;;;;;3.63;2.70;;;19.70;98.70;;;19.62;50.25;101868.69;4993449;27;96651;-44